createdAt,value
2017-11-23T00:00:45.192Z,0.00
2017-11-23T00:01:45.188Z,0.00
2017-11-23T00:02:45.183Z,0.00
2017-11-23T00:03:45.180Z,0.00
2017-11-23T00:04:45.177Z,0.00
2017-11-23T00:05:45.175Z,0.00
2017-11-23T00:06:45.169Z,0.00
2017-11-23T00:07:45.167Z,0.00
2017-11-23T00:08:45.163Z,0.00
2017-11-23T00:09:45.160Z,0.00
2017-11-23T00:10:45.157Z,0.00
2017-11-23T00:11:45.156Z,0.00
2017-11-23T00:12:45.150Z,0.00
2017-11-23T00:13:45.147Z,0.00
2017-11-23T00:14:45.144Z,0.00
2017-11-23T00:15:45.142Z,0.00
2017-11-23T00:16:45.139Z,0.00
2017-11-23T00:17:45.142Z,0.00
2017-11-23T00:18:45.131Z,0.00
2017-11-23T00:19:45.128Z,0.00
2017-11-23T00:20:45.125Z,0.00
2017-11-23T00:21:45.121Z,0.00
2017-11-23T00:22:45.119Z,0.00
2017-11-23T00:23:45.115Z,0.00
2017-11-23T00:24:45.112Z,0.00
2017-11-23T00:25:45.107Z,0.00
2017-11-23T00:26:45.105Z,0.00
2017-11-23T00:27:45.102Z,0.00
2017-11-23T00:28:45.099Z,0.00
2017-11-23T00:29:45.095Z,0.00
2017-11-23T00:30:45.092Z,0.00
2017-11-23T00:31:45.089Z,0.00
2017-11-23T00:32:45.086Z,0.00
2017-11-23T00:33:45.132Z,0.00
2017-11-23T00:34:45.082Z,0.00
2017-11-23T00:35:45.077Z,0.00
2017-11-23T00:36:45.125Z,0.00
2017-11-23T00:37:45.068Z,0.00
2017-11-23T00:38:45.067Z,0.00
2017-11-23T00:39:45.063Z,0.00
2017-11-23T00:40:45.061Z,0.00
2017-11-23T00:41:45.056Z,0.00
2017-11-23T00:42:45.053Z,0.00
2017-11-23T00:43:45.050Z,0.00
2017-11-23T00:44:45.046Z,0.00
2017-11-23T00:45:45.051Z,0.00
2017-11-23T00:46:45.043Z,0.00
2017-11-23T00:47:45.038Z,0.00
2017-11-23T00:48:45.034Z,0.00
2017-11-23T00:49:45.032Z,0.00
2017-11-23T00:50:45.028Z,0.00
2017-11-23T00:51:45.026Z,0.00
2017-11-23T00:52:45.022Z,0.00
2017-11-23T00:53:45.017Z,0.00
2017-11-23T00:54:45.014Z,0.00
2017-11-23T00:55:45.013Z,0.00
2017-11-23T00:56:45.008Z,0.00
2017-11-23T00:57:45.006Z,0.00
2017-11-23T00:58:45.002Z,0.00
2017-11-23T00:59:44.999Z,0.00
2017-11-23T01:00:44.996Z,0.00
2017-11-23T01:01:44.993Z,0.00
2017-11-23T01:02:44.990Z,0.00
2017-11-23T01:03:44.986Z,0.00
2017-11-23T01:04:44.984Z,0.00
2017-11-23T01:05:44.979Z,0.00
2017-11-23T01:06:44.976Z,0.00
2017-11-23T01:07:44.974Z,0.00
2017-11-23T01:08:44.971Z,0.00
2017-11-23T01:09:44.968Z,0.00
2017-11-23T01:10:44.964Z,0.00
2017-11-23T01:11:44.961Z,0.00
2017-11-23T01:12:44.959Z,0.00
2017-11-23T01:13:44.955Z,0.00
2017-11-23T01:14:44.953Z,0.00
2017-11-23T01:15:44.949Z,0.00
2017-11-23T01:16:44.946Z,0.00
2017-11-23T01:17:44.941Z,0.00
2017-11-23T01:18:44.939Z,0.00
2017-11-23T01:19:44.936Z,0.00
2017-11-23T01:20:44.933Z,0.00
2017-11-23T01:21:44.929Z,0.00
2017-11-23T01:22:44.926Z,0.00
2017-11-23T01:23:44.929Z,0.00
2017-11-23T01:24:44.944Z,0.00
2017-11-23T01:25:44.918Z,0.00
2017-11-23T01:26:44.914Z,0.00
2017-11-23T01:27:44.911Z,0.00
2017-11-23T01:28:44.908Z,0.00
2017-11-23T01:29:44.910Z,0.00
2017-11-23T01:30:44.901Z,0.00
2017-11-23T01:31:44.897Z,0.00
2017-11-23T01:32:44.894Z,0.00
2017-11-23T01:33:44.893Z,0.00
2017-11-23T01:34:44.888Z,0.00
2017-11-23T01:35:44.885Z,0.00
2017-11-23T01:36:44.883Z,0.00
2017-11-23T01:37:44.879Z,0.00
2017-11-23T01:38:44.876Z,0.00
2017-11-23T01:39:44.872Z,0.00
2017-11-23T01:40:44.870Z,0.00
2017-11-23T01:41:44.866Z,0.00
2017-11-23T01:42:44.864Z,0.00
2017-11-23T01:43:44.861Z,0.00
2017-11-23T01:44:44.857Z,0.00
2017-11-23T01:45:44.854Z,0.00
2017-11-23T01:46:44.852Z,0.00
2017-11-23T01:47:44.848Z,0.00
2017-11-23T01:48:44.846Z,0.00
2017-11-23T01:49:44.892Z,0.00
2017-11-23T01:50:44.838Z,0.00
2017-11-23T01:51:44.835Z,0.00
2017-11-23T01:52:44.834Z,0.00
2017-11-23T01:53:44.828Z,0.00
2017-11-23T01:54:44.826Z,0.00
2017-11-23T01:55:44.823Z,0.00
2017-11-23T01:56:44.823Z,0.00
2017-11-23T01:57:44.867Z,0.00
2017-11-23T01:58:44.815Z,0.00
2017-11-23T01:59:44.812Z,0.00
2017-11-23T02:00:44.808Z,0.00
2017-11-23T02:01:44.807Z,0.00
2017-11-23T02:02:44.803Z,0.00
2017-11-23T02:03:44.799Z,0.00
2017-11-23T02:04:44.797Z,0.00
2017-11-23T02:05:44.793Z,0.00
2017-11-23T02:06:44.790Z,0.00
2017-11-23T02:07:44.788Z,0.00
2017-11-23T02:08:44.793Z,0.00
2017-11-23T02:09:44.782Z,0.00
2017-11-23T02:10:44.786Z,0.00
2017-11-23T02:11:44.774Z,0.00
2017-11-23T02:12:44.772Z,0.00
2017-11-23T02:13:44.770Z,0.00
2017-11-23T02:14:44.764Z,0.00
2017-11-23T02:15:44.766Z,0.00
2017-11-23T02:16:44.758Z,0.00
2017-11-23T02:17:44.755Z,0.00
2017-11-23T02:18:44.756Z,0.00
2017-11-23T02:19:44.748Z,0.00
2017-11-23T02:20:44.746Z,0.00
2017-11-23T02:21:44.742Z,0.00
2017-11-23T02:22:44.743Z,0.00
2017-11-23T02:23:44.738Z,0.00
2017-11-23T02:24:44.733Z,0.00
2017-11-23T02:25:44.736Z,0.00
2017-11-23T02:26:44.729Z,0.00
2017-11-23T02:27:44.724Z,0.00
2017-11-23T02:28:44.771Z,0.00
2017-11-23T02:29:44.717Z,0.00
2017-11-23T02:30:44.715Z,0.00
2017-11-23T02:31:44.712Z,0.00
2017-11-23T02:32:44.710Z,0.00
2017-11-23T02:33:44.706Z,0.00
2017-11-23T02:34:44.704Z,0.00
2017-11-23T02:35:44.699Z,0.00
2017-11-23T02:36:44.699Z,0.00
2017-11-23T02:37:44.692Z,0.00
2017-11-23T02:38:44.690Z,0.00
2017-11-23T02:39:44.737Z,0.00
2017-11-23T02:40:44.683Z,0.00
2017-11-23T02:41:44.680Z,0.00
2017-11-23T02:42:44.677Z,0.00
2017-11-23T02:43:44.681Z,0.00
2017-11-23T02:44:44.672Z,0.00
2017-11-23T02:45:44.668Z,0.00
2017-11-23T02:46:44.665Z,0.00
2017-11-23T02:47:44.661Z,0.00
2017-11-23T02:48:44.660Z,0.00
2017-11-23T02:49:44.654Z,0.00
2017-11-23T02:50:44.650Z,0.00
2017-11-23T02:51:44.648Z,0.00
2017-11-23T02:52:44.694Z,0.00
2017-11-23T02:53:44.639Z,0.00
2017-11-23T02:54:44.637Z,0.00
2017-11-23T02:55:44.632Z,0.00
2017-11-23T02:56:44.630Z,0.00
2017-11-23T02:57:44.626Z,0.00
2017-11-23T02:58:44.629Z,0.00
2017-11-23T02:59:44.620Z,0.00
2017-11-23T03:00:44.615Z,0.00
2017-11-23T03:01:44.611Z,0.00
2017-11-23T03:02:44.608Z,0.00
2017-11-23T03:03:44.605Z,0.00
2017-11-23T03:04:44.602Z,0.00
2017-11-23T03:05:44.598Z,0.00
2017-11-23T03:06:44.595Z,0.00
2017-11-23T03:07:44.601Z,0.00
2017-11-23T03:08:44.587Z,0.00
2017-11-23T03:09:44.584Z,0.00
2017-11-23T03:10:44.580Z,0.00
2017-11-23T03:11:44.578Z,0.00
2017-11-23T03:12:44.574Z,0.00
2017-11-23T03:13:44.571Z,0.00
2017-11-23T03:14:44.574Z,0.00
2017-11-23T03:15:44.562Z,0.00
2017-11-23T03:16:44.561Z,0.00
2017-11-23T03:17:44.607Z,0.00
2017-11-23T03:18:44.552Z,0.00
2017-11-23T03:19:44.550Z,0.00
2017-11-23T03:20:44.546Z,0.00
2017-11-23T03:21:44.542Z,0.00
2017-11-23T03:22:44.545Z,0.00
2017-11-23T03:23:44.536Z,0.00
2017-11-23T03:24:44.541Z,0.00
2017-11-23T03:25:44.631Z,0.00
2017-11-23T03:26:44.526Z,0.00
2017-11-23T03:27:44.572Z,0.00
2017-11-23T03:28:44.518Z,0.00
2017-11-23T03:29:44.514Z,0.00
2017-11-23T03:30:44.513Z,0.00
2017-11-23T03:31:44.510Z,0.00
2017-11-23T03:32:44.506Z,0.00
2017-11-23T03:33:44.500Z,0.00
2017-11-23T03:34:44.497Z,0.00
2017-11-23T03:35:44.492Z,0.00
2017-11-23T03:36:44.491Z,0.00
2017-11-23T03:37:44.489Z,0.00
2017-11-23T03:38:44.484Z,0.00
2017-11-23T03:39:44.480Z,0.00
2017-11-23T03:40:44.475Z,0.00
2017-11-23T03:41:44.472Z,0.00
2017-11-23T03:42:44.469Z,0.00
2017-11-23T03:43:44.465Z,0.00
2017-11-23T03:44:44.462Z,0.00
2017-11-23T03:45:44.460Z,0.00
2017-11-23T03:46:44.455Z,0.00
2017-11-23T03:47:44.451Z,0.00
2017-11-23T03:48:44.447Z,0.00
2017-11-23T03:49:44.443Z,0.00
2017-11-23T03:50:44.440Z,0.00
2017-11-23T03:51:44.438Z,0.00
2017-11-23T03:52:44.433Z,0.00
2017-11-23T03:53:44.457Z,0.00
2017-11-23T03:54:44.425Z,0.00
2017-11-23T03:55:44.423Z,0.00
2017-11-23T03:56:44.418Z,0.00
2017-11-23T03:57:44.414Z,0.00
2017-11-23T03:58:44.414Z,0.00
2017-11-23T03:59:44.407Z,0.00
2017-11-23T04:00:44.406Z,0.00
2017-11-23T04:01:44.400Z,0.00
2017-11-23T04:02:44.402Z,0.00
2017-11-23T04:03:44.396Z,0.00
2017-11-23T04:04:44.402Z,0.00
2017-11-23T04:05:44.390Z,0.00
2017-11-23T04:06:44.433Z,0.00
2017-11-23T04:07:44.378Z,0.00
2017-11-23T04:08:44.374Z,0.00
2017-11-23T04:09:44.389Z,0.00
2017-11-23T04:10:44.366Z,0.00
2017-11-23T04:11:44.363Z,0.00
2017-11-23T04:12:44.361Z,0.00
2017-11-23T04:13:44.357Z,0.00
2017-11-23T04:14:44.352Z,0.00
2017-11-23T04:15:44.349Z,0.00
2017-11-23T04:16:44.345Z,0.00
2017-11-23T04:17:44.340Z,0.00
2017-11-23T04:18:44.338Z,0.00
2017-11-23T04:19:44.334Z,0.00
2017-11-23T04:20:44.331Z,0.00
2017-11-23T04:21:44.331Z,0.00
2017-11-23T04:22:44.322Z,0.00
2017-11-23T04:23:44.321Z,0.00
2017-11-23T04:24:44.317Z,0.00
2017-11-23T04:25:44.361Z,0.00
2017-11-23T04:26:44.310Z,0.00
2017-11-23T04:27:44.304Z,0.00
2017-11-23T04:28:44.302Z,0.00
2017-11-23T04:29:44.297Z,0.00
2017-11-23T04:30:44.293Z,0.00
2017-11-23T04:31:44.289Z,0.00
2017-11-23T04:32:44.286Z,0.00
2017-11-23T04:33:44.282Z,0.00
2017-11-23T04:34:44.278Z,0.00
2017-11-23T04:35:44.276Z,0.00
2017-11-23T04:36:44.273Z,0.00
2017-11-23T04:37:44.267Z,0.00
2017-11-23T04:38:44.268Z,0.00
2017-11-23T04:39:44.262Z,0.00
2017-11-23T04:40:44.256Z,0.00
2017-11-23T04:41:44.253Z,0.00
2017-11-23T04:42:44.249Z,0.00
2017-11-23T04:43:44.245Z,0.00
2017-11-23T04:44:44.242Z,0.00
2017-11-23T04:45:44.237Z,0.00
2017-11-23T04:46:44.235Z,0.00
2017-11-23T04:47:44.232Z,0.00
2017-11-23T04:48:44.227Z,0.00
2017-11-23T04:49:44.222Z,0.00
2017-11-23T04:50:44.220Z,0.00
2017-11-23T04:51:44.266Z,0.00
2017-11-23T04:52:44.213Z,0.00
2017-11-23T04:53:44.208Z,0.00
2017-11-23T04:54:44.226Z,0.00
2017-11-23T04:55:44.200Z,0.00
2017-11-23T04:56:44.199Z,0.00
2017-11-23T04:57:44.192Z,0.00
2017-11-23T04:58:44.188Z,0.00
2017-11-23T04:59:44.185Z,0.00
2017-11-23T05:00:44.181Z,0.00
2017-11-23T05:01:44.177Z,0.00
2017-11-23T05:02:44.172Z,0.00
2017-11-23T05:03:44.169Z,0.00
2017-11-23T05:04:44.174Z,0.00
2017-11-23T05:05:44.160Z,0.00
2017-11-23T05:06:44.159Z,0.00
2017-11-23T05:07:44.154Z,0.00
2017-11-23T05:08:44.151Z,0.00
2017-11-23T05:09:44.145Z,0.00
2017-11-23T05:10:44.142Z,0.00
2017-11-23T05:11:44.144Z,0.00
2017-11-23T05:12:44.135Z,0.00
2017-11-23T05:13:44.132Z,0.00
2017-11-23T05:14:44.128Z,0.00
2017-11-23T05:15:44.124Z,0.00
2017-11-23T05:16:44.121Z,0.00
2017-11-23T05:17:44.122Z,0.00
2017-11-23T05:18:44.112Z,0.00
2017-11-23T05:19:44.108Z,0.00
2017-11-23T05:20:44.106Z,0.00
2017-11-23T05:21:44.101Z,0.00
2017-11-23T05:22:44.096Z,0.00
2017-11-23T05:23:44.092Z,0.00
2017-11-23T05:24:44.090Z,0.00
2017-11-23T05:25:44.083Z,0.00
2017-11-23T05:26:44.081Z,0.00
2017-11-23T05:27:44.079Z,0.00
2017-11-23T05:28:44.074Z,0.00
2017-11-23T05:29:44.071Z,0.00
2017-11-23T05:30:44.115Z,0.00
2017-11-23T05:31:44.061Z,0.00
2017-11-23T05:32:44.057Z,0.00
2017-11-23T05:33:44.055Z,0.00
2017-11-23T05:34:44.048Z,0.00
2017-11-23T05:35:44.045Z,0.00
2017-11-23T05:36:44.041Z,0.00
2017-11-23T05:37:44.037Z,0.00
2017-11-23T05:38:44.033Z,0.00
2017-11-23T05:39:44.031Z,0.00
2017-11-23T05:40:44.026Z,0.00
2017-11-23T05:41:44.070Z,0.00
2017-11-23T05:42:44.020Z,0.00
2017-11-23T05:43:44.015Z,0.00
2017-11-23T05:44:44.011Z,0.00
2017-11-23T05:45:44.007Z,0.00
2017-11-23T05:46:44.002Z,0.00
2017-11-23T05:47:43.998Z,0.00
2017-11-23T05:48:43.994Z,0.00
2017-11-23T05:49:43.990Z,0.00
2017-11-23T05:50:44.036Z,0.00
2017-11-23T05:51:43.983Z,0.00
2017-11-23T05:52:43.979Z,0.00
2017-11-23T05:53:43.980Z,4.00
2017-11-23T05:54:43.970Z,4.00
2017-11-23T05:55:43.966Z,0.00
2017-11-23T05:56:43.962Z,0.00
2017-11-23T05:57:43.958Z,0.00
2017-11-23T05:58:43.953Z,4.00
2017-11-23T05:59:43.951Z,4.00
2017-11-23T06:00:43.945Z,4.00
2017-11-23T06:01:43.941Z,4.00
2017-11-23T06:02:43.936Z,4.00
2017-11-23T06:03:43.982Z,4.00
2017-11-23T06:04:43.928Z,8.00
2017-11-23T06:05:43.973Z,8.00
2017-11-23T06:06:43.922Z,8.00
2017-11-23T06:07:43.915Z,12.00
2017-11-23T06:08:43.911Z,16.00
2017-11-23T06:09:43.909Z,16.00
2017-11-23T06:10:43.909Z,20.00
2017-11-23T06:11:43.897Z,24.00
2017-11-23T06:12:43.894Z,28.00
2017-11-23T06:13:43.888Z,36.00
2017-11-23T06:14:43.885Z,40.00
2017-11-23T06:15:43.882Z,44.00
2017-11-23T06:16:43.877Z,52.00
2017-11-23T06:17:43.874Z,64.00
2017-11-23T06:18:43.868Z,68.00
2017-11-23T06:19:43.864Z,80.00
2017-11-23T06:20:43.859Z,88.00
2017-11-23T06:21:43.853Z,96.00
2017-11-23T06:22:43.850Z,104.00
2017-11-23T06:23:43.846Z,112.00
2017-11-23T06:24:43.842Z,124.00
2017-11-23T06:25:43.837Z,140.00
2017-11-23T06:26:43.835Z,152.00
2017-11-23T06:27:43.829Z,168.00
2017-11-23T06:28:43.826Z,192.00
2017-11-23T06:29:43.820Z,224.00
2017-11-23T06:30:43.816Z,248.00
2017-11-23T06:31:43.811Z,276.00
2017-11-23T06:32:43.807Z,300.00
2017-11-23T06:33:43.803Z,328.00
2017-11-23T06:34:43.798Z,360.00
2017-11-23T06:35:43.795Z,384.00
2017-11-23T06:36:43.790Z,416.00
2017-11-23T06:37:43.786Z,452.00
2017-11-23T06:38:43.782Z,488.00
2017-11-23T06:39:43.778Z,524.00
2017-11-23T06:40:43.792Z,560.00
2017-11-23T06:41:43.785Z,600.00
2017-11-23T06:42:43.785Z,648.00
2017-11-23T06:43:43.765Z,700.00
2017-11-23T06:44:43.794Z,756.00
2017-11-23T06:45:43.753Z,808.00
2017-11-23T06:46:43.749Z,856.00
2017-11-23T06:47:43.744Z,904.00
2017-11-23T06:48:43.741Z,952.00
2017-11-23T06:49:43.736Z,996.00
2017-11-23T06:50:43.732Z,1040.00
2017-11-23T06:51:43.728Z,1072.00
2017-11-23T06:52:43.725Z,1108.00
2017-11-23T06:53:43.719Z,1140.00
2017-11-23T06:54:43.715Z,1180.00
2017-11-23T06:55:43.712Z,1224.00
2017-11-23T06:56:43.708Z,1248.00
2017-11-23T06:57:43.703Z,1280.00
2017-11-23T06:58:43.700Z,1312.00
2017-11-23T06:59:43.696Z,1356.00
2017-11-23T07:00:43.743Z,1384.00
2017-11-23T07:01:43.687Z,1508.00
2017-11-23T07:02:43.743Z,1916.00
2017-11-23T07:03:43.682Z,1912.00
2017-11-23T07:04:43.676Z,1744.00
2017-11-23T07:05:43.670Z,1716.00
2017-11-23T07:06:43.668Z,1812.00
2017-11-23T07:07:43.664Z,2052.00
2017-11-23T07:08:43.660Z,4800.00
2017-11-23T07:09:43.662Z,7748.00
2017-11-23T07:10:43.651Z,6904.00
2017-11-23T07:11:43.697Z,9180.00
2017-11-23T07:12:43.645Z,9196.00
2017-11-23T07:13:43.641Z,10816.00
2017-11-23T07:14:43.636Z,15424.00
2017-11-23T07:15:43.636Z,20928.00
2017-11-23T07:16:43.632Z,23584.00
2017-11-23T07:17:43.629Z,21632.00
2017-11-23T07:18:43.627Z,19040.00
2017-11-23T07:19:43.629Z,20480.00
2017-11-23T07:20:43.622Z,21824.00
2017-11-23T07:21:43.620Z,21920.00
2017-11-23T07:22:43.623Z,27840.00
2017-11-23T07:23:43.621Z,30496.00
2017-11-23T07:24:43.621Z,32160.00
2017-11-23T07:25:43.621Z,31872.00
2017-11-23T07:26:43.621Z,29952.00
2017-11-23T07:27:43.623Z,31200.00
2017-11-23T07:28:43.627Z,29920.00
2017-11-23T07:29:43.626Z,21568.00
2017-11-23T07:30:43.624Z,17312.00
2017-11-23T07:31:43.624Z,15776.00
2017-11-23T07:32:43.626Z,9604.00
2017-11-23T07:33:43.625Z,6908.00
2017-11-23T07:34:43.630Z,6080.00
2017-11-23T07:35:43.628Z,6544.00
2017-11-23T07:36:43.630Z,9800.00
2017-11-23T07:37:43.629Z,17152.00
2017-11-23T07:38:43.632Z,23200.00
2017-11-23T07:39:43.631Z,30592.00
2017-11-23T07:40:43.632Z,29824.00
2017-11-23T07:41:43.632Z,27904.00
2017-11-23T07:42:43.685Z,27104.00
2017-11-23T07:43:43.636Z,30272.00
2017-11-23T07:44:43.639Z,32960.00
2017-11-23T07:45:43.639Z,30880.00
2017-11-23T07:46:43.641Z,28096.00
2017-11-23T07:47:43.642Z,27776.00
2017-11-23T07:48:43.646Z,24096.00
2017-11-23T07:49:43.648Z,24288.00
2017-11-23T07:50:43.650Z,19744.00
2017-11-23T07:51:43.652Z,13408.00
2017-11-23T07:52:43.657Z,12676.00
2017-11-23T07:53:43.658Z,21312.00
2017-11-23T07:54:43.659Z,22240.00
2017-11-23T07:55:43.662Z,16992.00
2017-11-23T07:56:43.664Z,18880.00
2017-11-23T07:57:43.667Z,25984.00
2017-11-23T07:58:43.667Z,25184.00
2017-11-23T07:59:43.670Z,16352.00
2017-11-23T08:00:43.672Z,9184.00
2017-11-23T08:01:43.672Z,5396.00
2017-11-23T08:02:43.675Z,5032.00
2017-11-23T08:03:43.675Z,4816.00
2017-11-23T08:04:43.677Z,4736.00
2017-11-23T08:05:43.678Z,4876.00
2017-11-23T08:06:43.679Z,4908.00
2017-11-23T08:07:43.680Z,4984.00
2017-11-23T08:08:43.682Z,7448.00
2017-11-23T08:09:43.688Z,16352.00
2017-11-23T08:10:43.682Z,25088.00
2017-11-23T08:11:43.682Z,17792.00
2017-11-23T08:12:43.682Z,15424.00
2017-11-23T08:13:43.682Z,16800.00
2017-11-23T08:14:43.681Z,23200.00
2017-11-23T08:15:43.682Z,30368.00
2017-11-23T08:16:43.683Z,27264.00
2017-11-23T08:17:43.683Z,19264.00
2017-11-23T08:18:43.684Z,18112.00
2017-11-23T08:19:43.691Z,19776.00
2017-11-23T08:20:43.685Z,11164.00
2017-11-23T08:21:43.686Z,4732.00
2017-11-23T08:22:43.686Z,4516.00
2017-11-23T08:23:43.688Z,4324.00
2017-11-23T08:24:43.687Z,4260.00
2017-11-23T08:25:43.689Z,4276.00
2017-11-23T08:26:43.689Z,4336.00
2017-11-23T08:27:43.687Z,6116.00
2017-11-23T08:28:43.689Z,11088.00
2017-11-23T08:29:43.688Z,18720.00
2017-11-23T08:30:43.688Z,13876.00
2017-11-23T08:31:43.688Z,8596.00
2017-11-23T08:32:43.696Z,9176.00
2017-11-23T08:33:43.689Z,10468.00
2017-11-23T08:34:43.706Z,13084.00
2017-11-23T08:35:43.688Z,13108.00
2017-11-23T08:36:43.688Z,11480.00
2017-11-23T08:37:43.688Z,6480.00
2017-11-23T08:38:43.686Z,4488.00
2017-11-23T08:39:43.695Z,4520.00
2017-11-23T08:40:43.686Z,4540.00
2017-11-23T08:41:43.734Z,4836.00
2017-11-23T08:42:43.684Z,6900.00
2017-11-23T08:43:43.690Z,7096.00
2017-11-23T08:44:43.685Z,9052.00
2017-11-23T08:45:43.683Z,15840.00
2017-11-23T08:46:43.681Z,15396.00
2017-11-23T08:47:43.681Z,16960.00
2017-11-23T08:48:43.681Z,19680.00
2017-11-23T08:49:43.680Z,22240.00
2017-11-23T08:50:43.688Z,22464.00
2017-11-23T08:51:43.729Z,16736.00
2017-11-23T08:52:43.680Z,8524.00
2017-11-23T08:53:43.679Z,4868.00
2017-11-23T08:54:43.679Z,4732.00
2017-11-23T08:55:43.686Z,4728.00
2017-11-23T08:56:43.678Z,4880.00
2017-11-23T08:57:43.680Z,6592.00
2017-11-23T08:58:43.681Z,8624.00
2017-11-23T08:59:43.680Z,5928.00
2017-11-23T09:00:43.679Z,11112.00
2017-11-23T09:01:43.684Z,12644.00
2017-11-23T09:02:43.678Z,11176.00
2017-11-23T09:03:43.677Z,16800.00
2017-11-23T09:04:43.678Z,11280.00
2017-11-23T09:05:43.676Z,11440.00
2017-11-23T09:06:43.676Z,20384.00
2017-11-23T09:07:43.677Z,16768.00
2017-11-23T09:08:43.678Z,14468.00
2017-11-23T09:09:43.677Z,13552.00
2017-11-23T09:10:43.677Z,16064.00
2017-11-23T09:11:43.677Z,13220.00
2017-11-23T09:12:43.679Z,7296.00
2017-11-23T09:13:43.678Z,6432.00
2017-11-23T09:14:43.680Z,7244.00
2017-11-23T09:15:43.680Z,7492.00
2017-11-23T09:16:43.682Z,7232.00
2017-11-23T09:17:43.680Z,6792.00
2017-11-23T09:18:43.680Z,6508.00
2017-11-23T09:19:43.683Z,6964.00
2017-11-23T09:20:43.682Z,7336.00
2017-11-23T09:21:43.682Z,7400.00
2017-11-23T09:22:43.682Z,7084.00
2017-11-23T09:23:43.684Z,6688.00
2017-11-23T09:24:43.683Z,8400.00
2017-11-23T09:25:43.686Z,9876.00
2017-11-23T09:26:43.686Z,9004.00
2017-11-23T09:27:43.685Z,8956.00
2017-11-23T09:28:43.686Z,7840.00
2017-11-23T09:29:43.688Z,8096.00
2017-11-23T09:30:43.694Z,9636.00
2017-11-23T09:31:43.698Z,11304.00
2017-11-23T09:32:43.740Z,13000.00
2017-11-23T09:33:43.744Z,13612.00
2017-11-23T09:34:43.694Z,15244.00
2017-11-23T09:35:43.696Z,18976.00
2017-11-23T09:36:43.698Z,16704.00
2017-11-23T09:37:43.700Z,11548.00
2017-11-23T09:38:43.702Z,12468.00
2017-11-23T09:39:43.705Z,16384.00
2017-11-23T09:40:43.707Z,17504.00
2017-11-23T09:41:43.709Z,21728.00
2017-11-23T09:42:43.714Z,20448.00
2017-11-23T09:43:43.715Z,23008.00
2017-11-23T09:44:43.719Z,30592.00
2017-11-23T09:45:43.720Z,33408.00
2017-11-23T09:46:43.726Z,33536.00
2017-11-23T09:47:43.728Z,27360.00
2017-11-23T09:48:43.730Z,25536.00
2017-11-23T09:49:43.735Z,20576.00
2017-11-23T09:50:43.739Z,15184.00
2017-11-23T09:51:43.743Z,11460.00
2017-11-23T09:52:43.746Z,13180.00
2017-11-23T09:53:43.751Z,19360.00
2017-11-23T09:54:43.755Z,19200.00
2017-11-23T09:55:43.759Z,13320.00
2017-11-23T09:56:43.763Z,14020.00
2017-11-23T09:57:43.765Z,21472.00
2017-11-23T09:58:43.769Z,23552.00
2017-11-23T09:59:43.774Z,31072.00
2017-11-23T10:00:43.780Z,35904.00
2017-11-23T10:01:43.782Z,41152.00
2017-11-23T10:02:43.786Z,39552.00
2017-11-23T10:03:43.795Z,35520.00
2017-11-23T10:04:43.812Z,26400.00
2017-11-23T10:05:43.800Z,23872.00
2017-11-23T10:06:43.809Z,25760.00
2017-11-23T10:07:43.811Z,32320.00
2017-11-23T10:08:43.817Z,25792.00
2017-11-23T10:09:43.822Z,26624.00
2017-11-23T10:10:43.828Z,24288.00
2017-11-23T10:11:43.838Z,27296.00
2017-11-23T10:12:43.839Z,27456.00
2017-11-23T10:13:43.845Z,24896.00
2017-11-23T10:14:43.873Z,26560.00
2017-11-23T10:15:43.859Z,29728.00
2017-11-23T10:16:43.866Z,30304.00
2017-11-23T10:17:43.870Z,30240.00
2017-11-23T10:18:43.878Z,28288.00
2017-11-23T10:19:43.883Z,24224.00
2017-11-23T10:20:43.889Z,19520.00
2017-11-23T10:21:43.949Z,17792.00
2017-11-23T10:22:43.902Z,18304.00
2017-11-23T10:23:43.910Z,15604.00
2017-11-23T10:24:43.915Z,13312.00
2017-11-23T10:25:43.923Z,19584.00
2017-11-23T10:26:43.930Z,18624.00
2017-11-23T10:27:43.943Z,15116.00
2017-11-23T10:28:43.943Z,12108.00
2017-11-23T10:29:43.948Z,10292.00
2017-11-23T10:30:43.955Z,9976.00
2017-11-23T10:31:44.011Z,16384.00
2017-11-23T10:32:43.968Z,17024.00
2017-11-23T10:33:43.973Z,17664.00
2017-11-23T10:34:43.979Z,15776.00
2017-11-23T10:35:43.984Z,17856.00
2017-11-23T10:36:43.991Z,12284.00
2017-11-23T10:37:43.995Z,13788.00
2017-11-23T10:38:44.002Z,12404.00
2017-11-23T10:39:44.007Z,12840.00
2017-11-23T10:40:44.013Z,10136.00
2017-11-23T10:41:44.017Z,11388.00
2017-11-23T10:42:44.023Z,13116.00
2017-11-23T10:43:44.033Z,10164.00
2017-11-23T10:44:44.034Z,12100.00
2017-11-23T10:45:44.039Z,10160.00
2017-11-23T10:46:44.044Z,10412.00
2017-11-23T10:47:44.052Z,11292.00
2017-11-23T10:48:44.055Z,13796.00
2017-11-23T10:49:44.061Z,16032.00
2017-11-23T10:50:44.066Z,21728.00
2017-11-23T10:51:44.123Z,17504.00
2017-11-23T10:52:44.077Z,18304.00
2017-11-23T10:53:44.086Z,17728.00
2017-11-23T10:54:44.087Z,16896.00
2017-11-23T10:55:44.094Z,13412.00
2017-11-23T10:56:44.101Z,10664.00
2017-11-23T10:57:44.105Z,10672.00
2017-11-23T10:58:44.109Z,14112.00
2017-11-23T10:59:44.167Z,16128.00
2017-11-23T11:00:44.122Z,13940.00
2017-11-23T11:01:44.177Z,10908.00
2017-11-23T11:02:44.132Z,10048.00
2017-11-23T11:03:44.138Z,9888.00
2017-11-23T11:04:44.144Z,12004.00
2017-11-23T11:05:44.148Z,14092.00
2017-11-23T11:06:44.254Z,11368.00
2017-11-23T11:07:44.159Z,13032.00
2017-11-23T11:08:44.166Z,14872.00
2017-11-23T11:09:44.170Z,13700.00
2017-11-23T11:10:44.175Z,12240.00
2017-11-23T11:11:44.180Z,11608.00
2017-11-23T11:12:44.188Z,11224.00
2017-11-23T11:13:44.190Z,14172.00
2017-11-23T11:14:44.198Z,18848.00
2017-11-23T11:15:44.203Z,15872.00
2017-11-23T11:16:44.209Z,24672.00
2017-11-23T11:17:44.212Z,19808.00
2017-11-23T11:18:44.218Z,12676.00
2017-11-23T11:19:44.223Z,10128.00
2017-11-23T11:20:44.230Z,9568.00
2017-11-23T11:21:44.235Z,9016.00
2017-11-23T11:22:44.240Z,8860.00
2017-11-23T11:23:44.246Z,8624.00
2017-11-23T11:24:44.292Z,9548.00
2017-11-23T11:25:44.257Z,10560.00
2017-11-23T11:26:44.263Z,10260.00
2017-11-23T11:27:44.268Z,8900.00
2017-11-23T11:28:44.273Z,8864.00
2017-11-23T11:29:44.277Z,8392.00
2017-11-23T11:30:44.284Z,8972.00
2017-11-23T11:31:44.296Z,10480.00
2017-11-23T11:32:44.294Z,12540.00
2017-11-23T11:33:44.298Z,15260.00
2017-11-23T11:34:44.304Z,12904.00
2017-11-23T11:35:44.314Z,9840.00
2017-11-23T11:36:44.365Z,9028.00
2017-11-23T11:37:44.319Z,8120.00
2017-11-23T11:38:44.326Z,7888.00
2017-11-23T11:39:44.330Z,7600.00
2017-11-23T11:40:44.336Z,7852.00
2017-11-23T11:41:44.339Z,8580.00
2017-11-23T11:42:44.345Z,9636.00
2017-11-23T11:43:44.350Z,16064.00
2017-11-23T11:44:44.355Z,18752.00
2017-11-23T11:45:44.359Z,18528.00
2017-11-23T11:46:44.364Z,14148.00
2017-11-23T11:47:44.372Z,12052.00
2017-11-23T11:48:44.375Z,12460.00
2017-11-23T11:49:44.381Z,14024.00
2017-11-23T11:50:44.394Z,15680.00
2017-11-23T11:51:44.694Z,20992.00
2017-11-23T11:52:44.397Z,21088.00
2017-11-23T11:53:44.403Z,21728.00
2017-11-23T11:54:44.414Z,21152.00
2017-11-23T11:55:44.420Z,18080.00
2017-11-23T11:56:44.672Z,12996.00
2017-11-23T11:57:44.427Z,13844.00
2017-11-23T11:58:44.434Z,17472.00
2017-11-23T11:59:44.442Z,17696.00
2017-11-23T12:00:44.498Z,17120.00
2017-11-23T12:01:44.453Z,16896.00
2017-11-23T12:02:44.460Z,15232.00
2017-11-23T12:03:44.470Z,15840.00
2017-11-23T12:04:44.475Z,16448.00
2017-11-23T12:05:44.480Z,14772.00
2017-11-23T12:06:44.487Z,14812.00
2017-11-23T12:07:44.495Z,15584.00
2017-11-23T12:08:44.503Z,15648.00
2017-11-23T12:09:44.508Z,15808.00
2017-11-23T12:10:44.516Z,18144.00
2017-11-23T12:11:44.524Z,18432.00
2017-11-23T12:12:44.531Z,17888.00
2017-11-23T12:13:44.538Z,15904.00
2017-11-23T12:14:44.544Z,15208.00
2017-11-23T12:15:44.559Z,17664.00
2017-11-23T12:16:44.568Z,18176.00
2017-11-23T12:17:44.568Z,16896.00
2017-11-23T12:18:44.575Z,16896.00
2017-11-23T12:19:44.582Z,17024.00
2017-11-23T12:20:44.590Z,15680.00
2017-11-23T12:21:44.599Z,13968.00
2017-11-23T12:22:44.605Z,12888.00
2017-11-23T12:23:44.613Z,12692.00
2017-11-23T12:24:44.620Z,13144.00
2017-11-23T12:25:44.626Z,14684.00
2017-11-23T12:26:44.635Z,15872.00
2017-11-23T12:27:44.660Z,16928.00
2017-11-23T12:28:44.652Z,17120.00
2017-11-23T12:29:44.657Z,16928.00
2017-11-23T12:30:44.665Z,16320.00
2017-11-23T12:31:44.675Z,14512.00
2017-11-23T12:32:44.681Z,12760.00
2017-11-23T12:33:44.689Z,12276.00